Latest Coastal Weather Observations for Port Hedland

IDW60701

Issued at 3:25 am WST Wednesday 3 September 2014 (issued every 10 minutes, with the page automatically refreshed every 10 minutes)

About coastal observations | Map of coastal stations | Coastal observations for WA | Marine services | Other Formats
Station Details ID: 004032 Name: PORT HEDLAND AIRPORT Lat: -20.37 Lon: 118.63 Height: 6.4 m
Data from the previous 72 hours. | See also: Recent months at Port Hedland
Date/Time
WST
Temp

°C
Wind Pressure Rain
since 9am
mm
Weather Cloud Vis
km
Sea
Height
m
Swell
Dir
 
Speed
knots
Gust
knots
hPa Trend Height
m
Period
s
Dir
03/03:00am 14.8 SSW 6 6 1015.2 - 0.0 - - 10 - - - -
03/02:30am 14.6 SSW 5 6 1015.3 - 0.0 - - 10 - - - -
03/02:00am 14.8 SSW 6 7 1015.4 - 0.0 - - 10 - - - -
03/01:30am 14.8 SSW 5 6 1015.5 - 0.0 - - 10 - - - -
03/01:00am 15.4 SSW 5 6 1015.7 - 0.0 - - 10 - - - -
03/12:30am 16.0 SSW 6 7 1015.9 - 0.0 - - 10 - - - -
03/12:00am 16.0 SW 6 6 1016.1 - 0.0 - - 10 - - - -
 
Date/Time
WST
Temp

°C
Wind Pressure Rain
since 9am
mm
Weather Cloud Vis
km
Sea
Height
m
Swell
Dir
 
Speed
knots
Gust
knots
hPa Trend Height
m
Period
s
Dir
02/11:30pm 16.4 SW 6 7 1016.3 - 0.0 - - 10 - - - -
02/11:00pm 15.8 WSW 8 8 1016.3 - 0.0 - - 10 - - - -
02/10:30pm 16.3 W 7 8 1016.4 - 0.0 - - 10 - - - -
02/10:00pm 16.9 WSW 8 8 1016.4 - 0.0 - - 10 - - - -
02/09:30pm 17.3 WSW 7 8 1016.3 - 0.0 - - 10 - - - -
02/09:00pm 18.5 W 7 8 1016.2 - 0.0 - - 10 - - - -
02/08:30pm 18.2 WNW 8 9 1016.1 - 0.0 - - 10 - - - -
02/08:00pm 18.7 WNW 8 9 1015.8 - 0.0 - - 10 - - - -
02/07:30pm 19.5 WNW 8 9 1015.5 - 0.0 - - 10 - - - -
02/07:00pm 20.5 WNW 8 9 1015.2 - 0.0 - - 10 - - - -
02/06:30pm 21.4 WNW 7 8 1015.0 - 0.0 - - 10 - - - -
02/06:00pm 24.2 WNW 6 7 1014.7 - 0.0 - - 10 - - - -
02/05:30pm 27.8 NW 8 11 1014.4 - 0.0 - - 10 - - - -
02/05:00pm 30.1 NW 9 11 1014.3 - 0.0 - - 10 - - - -
02/04:30pm 31.8 NW 9 10 1014.1 - 0.0 - - 10 - - - -
02/04:00pm 32.5 NW 8 10 1014.1 - 0.0 - - 10 - - - -
02/03:30pm 33.3 NW 8 11 1013.9 - 0.0 - - 10 - - - -
02/03:00pm 33.5 NW 9 12 1013.9 F 0.0 Fine Clear 30 - - - -
02/02:30pm 34.5 NW 8 11 1014.1 - 0.0 - - 10 - - - -
02/02:00pm 33.5 NW 10 12 1014.4 - 0.0 - - 10 - - - -
02/01:30pm 33.3 NW 10 14 1014.8 - 0.0 - - 10 - - - -
02/01:00pm 32.2 NNW 9 12 1015.4 - 0.0 - - 10 - - - -
02/12:30pm 32.6 N 9 11 1015.7 - 0.0 - - 10 - - - -
02/12:00pm 31.9 N 10 13 1016.0 R 0.0 Fine Clear 30 - - - -
02/11:30am 32.1 N 9 11 1016.5 - 0.0 - - 10 - - - -
02/11:00am 31.4 NNE 8 9 1017.0 - 0.0 - - 10 - - - -
02/10:30am 30.3 N 7 9 1017.2 - 0.0 - - 10 - - - -
02/10:00am 29.7 NNE 7 8 1017.4 - 0.0 - - 10 - - - -
02/09:30am 28.0 NE 5 7 1017.5 - 0.0 - - 10 - - - -
02/09:00am 25.6 NNE 5 6 1017.3 R 0.0 Fine Clear 30 - - - -
02/08:30am 25.1 E 3 4 1017.1 - 0.0 - - 10 - - - -
02/08:00am 21.8 NE 4 5 1016.8 - 0.0 - - 10 - - - -
02/07:30am 18.9 ENE 1 3 1016.5 - 0.0 - - 10 - - - -
02/07:00am 15.5 E 3 4 1016.1 - 0.0 - - 10 - - - -
02/06:30am 13.7 ESE 4 5 1015.7 - 0.0 - - 10 - - - -
02/06:00am 12.7 SE 4 4 1015.4 F 0.0 Fine Clear 30 - - - -
02/05:30am 13.1 S 3 4 1015.1 - 0.0 - - 10 - - - -
02/05:00am 14.5 S 5 6 1014.8 - 0.0 - - 10 - - - -
02/04:30am 13.6 SSW 5 5 1014.8 - 0.0 - - 10 - - - -
02/04:00am 14.0 SSW 6 8 1014.7 - 0.0 - - 10 - - - -
02/03:30am 13.7 S 5 6 1014.6 - 0.0 - - 10 - - - -
02/03:00am 14.1 S 5 6 1014.7 - 0.0 - - 10 - - - -
02/02:30am 14.7 S 6 7 1014.9 - 0.0 - - 10 - - - -
02/02:00am 15.6 S 7 8 1015.1 - 0.0 - - 10 - - - -
02/01:30am 15.9 S 7 9 1015.2 - 0.0 - - 10 - - - -
02/01:00am 16.1 SSW 8 10 1015.3 - 0.0 - - 10 - - - -
02/12:30am 16.0 SSW 8 10 1015.5 - 0.0 - - 10 - - - -
02/12:00am 15.7 S 7 9 1015.6 - 0.0 - - 10 - - - -
 
Date/Time
WST
Temp

°C
Wind Pressure Rain
since 9am
mm
Weather Cloud Vis
km
Sea
Height
m
Swell
Dir
 
Speed
knots
Gust
knots
hPa Trend Height
m
Period
s
Dir
01/11:30pm 16.9 S 6 8 1015.8 - 0.0 - - 10 - - - -
01/11:00pm 17.4 S 5 7 1015.9 - 0.0 - - 10 - - - -
01/10:30pm 17.2 S 4 5 1015.9 - 0.0 - - 10 - - - -
01/10:00pm 17.3 WSW 4 4 1015.8 - 0.0 - - 10 - - - -
01/09:30pm 18.3 WSW 3 4 1015.7 - 0.0 - - 10 - - - -
01/09:00pm 18.4 WSW 4 5 1015.7 - 0.0 - - 10 - - - -
01/08:30pm 19.0 W 6 6 1015.6 - 0.0 - - 10 - - - -
01/08:00pm 19.0 WNW 8 9 1015.2 - 0.0 - - 10 - - - -
01/07:30pm 20.0 W 6 7 1014.8 - 0.0 - - 10 - - - -
01/07:00pm 20.5 NW 7 8 1014.4 - 0.0 - - 10 - - - -
01/06:30pm 21.5 NW 8 8 1014.1 - 0.0 - - 10 - - - -
01/06:00pm 23.6 NNW 6 7 1013.9 - 0.0 - - 10 - - - -
01/05:30pm 27.1 NW 7 8 1013.6 - 0.0 - - 10 - - - -
01/05:00pm 29.2 NNW 8 9 1013.5 - 0.0 - - 10 - - - -
01/04:30pm 30.7 N 11 14 1012.9 - 0.0 - - 10 - - - -
01/04:00pm 30.0 N 12 16 1012.6 - 0.0 - - 10 - - - -
01/03:30pm 31.1 NNW 12 15 1013.1 - 0.0 - - 10 - - - -
01/03:00pm 31.5 N 11 14 1013.3 S 0.0 Fine Clear 30 - - - -
01/02:30pm 30.9 NNW 10 12 1013.5 - 0.0 - - 10 - - - -
01/02:00pm 30.7 N 11 13 1014.0 - 0.0 - - 10 - - - -
01/01:30pm 31.1 N 9 11 1014.4 - 0.0 - - 10 - - - -
01/01:00pm 32.4 N 8 10 1014.5 - 0.0 - - 10 - - - -
01/12:30pm 32.0 N 7 9 1014.8 - 0.0 - - 10 - - - -
01/12:00pm 29.7 N 8 10 1015.3 R 0.0 Fine Clear 30 - - - -
01/11:30am 29.3 N 7 9 1015.8 - 0.0 - - 10 - - - -
01/11:00am 27.6 NNE 9 11 1016.0 - 0.0 - - 10 - - - -
01/10:30am 26.1 NNE 9 13 1016.4 - 0.0 - - 10 - - - -
01/10:00am 26.7 NNE 8 11 1016.5 - 0.0 - - 10 - - - -
01/09:30am 25.8 N 7 9 1016.5 - 0.0 - - 10 - - - -
01/09:00am 25.2 NNE 5 7 1016.4 R 0.0 Fine Clear 30 - - - -
01/08:30am 25.1 NE 4 6 1016.1 - 0.0 - - 10 - - - -
01/08:00am 23.8 SE 5 7 1015.7 - 0.0 - - 10 - - - -
01/07:30am 19.7 SSE 6 8 1015.2 - 0.0 - - 10 - - - -
01/07:00am 17.0 S 5 7 1015.0 - 0.0 - - 10 - - - -
01/06:30am 12.6 S 1 4 1014.6 - 0.0 - - 10 - - - -
01/06:00am 15.5 S 6 7 1014.3 F 0.0 Fine Clear 30 - - - -
01/05:30am 14.8 S 6 7 1014.1 - 0.0 - - 10 - - - -
01/05:00am 15.7 S 8 11 1013.8 - 0.0 - - 10 - - - -
01/04:30am 15.7 S 8 9 1013.6 - 0.0 - - 10 - - - -
01/04:00am 15.5 S 9 12 1013.4 - 0.0 - - 10 - - - -
01/03:30am 15.6 S 9 10 1013.4 - 0.0 - - 10 - - - -
01/03:00am 14.1 S 6 8 1013.6 - 0.0 - - 10 - - - -
01/02:30am 15.0 S 6 7 1013.6 - 0.0 - - 10 - - - -
01/02:00am 15.6 S 7 9 1013.9 - 0.0 - - 10 - - - -
01/01:30am 15.7 S 7 8 1014.1 - 0.0 - - 10 - - - -
01/01:00am 15.6 S 6 7 1014.4 - 0.0 - - 10 - - - -
01/12:30am 15.4 SSW 7 8 1014.6 - 0.0 - - 10 - - - -
01/12:00am 16.1 SSW 7 8 1014.7 - 0.0 - - 10 - - - -
 
Date/Time
WST
Temp

°C
Wind Pressure Rain
since 9am
mm
Weather Cloud Vis
km
Sea
Height
m
Swell
Dir
 
Speed
knots
Gust
knots
hPa Trend Height
m
Period
s
Dir
31/11:30pm 16.0 SSW 7 7 1014.7 - 0.0 - - 10 - - - -
31/11:00pm 16.7 SW 7 8 1015.0 - 0.0 - - 10 - - - -
31/10:30pm 17.1 SSW 7 7 1015.0 - 0.0 - - 10 - - - -
31/10:00pm 17.4 SW 6 6 1015.1 - 0.0 - - 10 - - - -
31/09:30pm 17.6 SW 6 7 1015.2 - 0.0 - - 10 - - - -
31/09:00pm 17.5 WSW 7 7 1015.0 - 0.0 - - 10 - - - -
31/08:30pm 18.0 WSW 7 7 1014.8 - 0.0 - - 10 - - - -
31/08:00pm 18.9 W 5 5 1014.4 - 0.0 - - 10 - - - -
31/07:30pm 19.6 W 5 6 1014.1 - 0.0 - - 10 - - - -
31/07:00pm 19.9 W 7 7 1013.8 - 0.0 - - 10 - - - -
31/06:30pm 21.0 WNW 7 8 1013.4 - 0.0 - - 10 - - - -
31/06:00pm 23.2 NW 6 7 1013.4 - 0.0 - - 10 - - - -
31/05:30pm 26.5 NNW 8 10 1013.1 - 0.0 - - 10 - - - -
31/05:00pm 28.9 N 9 12 1013.0 - 0.0 - - 10 - - - -
31/04:30pm 30.1 N 10 13 1013.0 - 0.0 - - 10 - - - -
31/04:00pm 30.4 NNW 11 14 1013.0 - 0.0 - - 10 - - - -
31/03:30pm 30.9 NNW 12 14 1012.9 - 0.0 - - 10 - - - -
31/03:00pm 32.1 NNW 10 14 1012.9 R 0.0 Fine Clear 30 - - - -
31/02:30pm 32.5 NNW 11 14 1013.0 - 0.0 - - 10 - - - -
31/02:00pm 33.0 NNW 11 15 1013.2 - 0.0 - - 10 - - - -
31/01:30pm 32.2 N 11 13 1013.6 - 0.0 - - 10 - - - -
31/01:00pm 32.9 NNE 10 13 1013.9 - 0.0 - - 10 - - - -
31/12:30pm 32.9 NNE 10 12 1014.3 - 0.0 - - 10 - - - -
31/12:00pm 33.3 NNE 10 13 1014.7 F 0.0 Fine Clear 30 - - - -
31/11:30am 33.0 NNE 8 11 1014.9 - 0.0 - - 10 - - - -
31/11:00am 32.8 NNE 4 10 1015.4 - 0.0 - - 10 - - - -
31/10:30am 32.6 SSE 5 9 1015.8 - 0.0 - - 10 - - - -
31/10:00am 32.0 S 7 9 1016.1 - 0.0 - - 10 - - - -
31/09:30am 30.9 SSW 9 11 1016.3 - 0.0 - - 10 - - - -
31/09:00am 29.2 S 9 11 1016.3 S 0.0 Fine Clear 30 - - - -
31/08:30am 27.0 S 6 11 1016.2 - 0.0 - - 10 - - - -
31/08:00am 23.5 SSE 7 9 1016.1 - 0.0 - - 10 - - - -
31/07:30am 19.2 SSE 2 5 1015.8 - 0.0 - - 10 - - - -
31/07:00am 15.2 SSE 6 8 1015.4 - 0.0 - - 10 - - - -
31/06:30am 12.8 S 6 7 1015.2 - 0.0 - - 10 - - - -
31/06:00am 13.3 S 6 7 1014.9 - 0.0 - - 10 - - - -
31/05:30am 13.3 S 6 7 1014.7 - 0.0 - - 10 - - - -
31/05:00am 13.8 S 7 8 1014.6 - 0.0 - - 10 - - - -
31/04:30am 12.4 S 6 8 1014.4 - 0.0 - - 10 - - - -
31/04:00am 13.5 S 7 9 1014.3 - 0.0 - - 10 - - - -
31/03:30am 12.0 S 5 6 1014.3 - 0.0 - - 10 - - - -

Other Formats:

Comma delimited format used in spreadsheet applications
http://www.bom.gov.au/fwo/IDW60701/IDW60701.94312.axf

JavaScript Object Notation format (JSON) in row-major order
http://www.bom.gov.au/fwo/IDW60701/IDW60701.94312.json